Aeroporto :
LOGIN :

Iscrizione | Disclaimer

   EN    FR    IT 

 










Sommario :    VFR   VFR Marginale   IFR   IFR Intensivo   IFR Molto Intensivo
Visibilità : 
Base nubi : 
>= 8 km
>= 3000ft
5 / 8 km
1000 / 3000 ft
1500m / 5 km
500 / 1000 ft
800 / 1500m
200 / 500 ft
< 800m
< 200 ft
Simboli :   Temporali  Nebbia  Neve Forte  Precipitazioni Forti  Vento > 20 kt
SIGMETs :   Varie  Temporali  Ghiacco  Turbolenza  Onda orograficha  Ceneri Vulcaniche






- Altitudine del aeroporto : 233 ft
- Codice IATA : REU


LERS - Reus Tarragona

ULTIMO METAR :
  • 172300Z AUTO 03004KT 360V070 8000 NCD 20/19 Q1012

METARs OBSOLETI :
  • 172230Z AUTO 36004KT 340V090 CAVOK 21/19 Q1012
  • 172200Z 35004KT 9999 FEW020 21/19 Q1012
  • 172130Z 35005KT 9999 FEW020 21/20 Q1012
  • 172100Z 02004KT 350V050 9999 FEW020 SCT030 21/19 Q1011

TAF TAF LERS
Valido dal 17 a 21 ore il 18 a 21 ore UTC


172000Z 1721/1821 VRB04KT 9999 FEW040 TX30/1812Z TN17/1806Z
TEMPO 1721/1724 FEW020TCU
BECMG 1809/1811 14008KT
BECMG 1819/1821 VRB04KT



MetMap, La meteo Aeronautica in un colpo d'occhio ! - Copyright ORBIFLY Dicembre 2007 - Disclaimer

ORBIFLY MET'MAP TEAM :

Programmazione e sviluppo : Alexandra Zaïnal
Concezione : Baudouin d'Aumeries
Aiuto per la programmazione : Marc-Olivier Méhu
Supporto tecnico e logistico : Manuel Goepfert
Aiuto per la traduzione : Arnaldo La Scala

Contatto : metmap@orbifly.com




FONTI E CREDITI :

   NOAA